Latest Weather Observations for Redcliffe

IDQ60901

Issued at 4:31 pm EST Sunday 2 August 2015 (issued every 10 minutes, with the page automatically refreshed every 10 minutes)

About weather observations | Map of Brisbane area stations | Latest observations for Brisbane area | Other Formats
Station Details ID: 040958 Name: REDCLIFFE Lat: -27.22 Lon: 153.09 Height: 12.6 m
Data from the previous 72 hours. | See also: Recent months at Redcliffe
Date/Time
EST
Tmp

°C
App
Tmp
°C
Dew
Point
°C
Rel
Hum
%
Delta-T

°C
Wind Press
QNH
hPa
Press
MSL
hPa
Rain
since
9 am
mm
Dir
 
Spd
km/h
Gust
km/h
Spd
kts
Gust
kts
02/04:30pm 20.9 17.6 14.1 65 3.9 NNE 24 28 13 15 1018.7 1018.7 0.0
02/04:00pm 21.5 17.8 13.9 62 4.4 NNE 26 30 14 16 1018.7 1018.7 0.0
02/03:30pm 22.3 19.2 14.4 61 4.6 NE 24 28 13 15 1018.9 1018.9 0.0
02/03:00pm 22.8 18.9 14.4 59 4.9 NE 28 30 15 16 1019.0 1019.0 0.0
02/02:30pm 22.6 20.0 13.9 58 5.1 NE 20 24 11 13 1019.3 1019.3 0.0
02/02:00pm 23.0 20.8 13.2 54 5.6 NE 17 22 9 12 1019.6 1019.6 0.0
02/01:30pm 22.9 22.0 12.5 52 5.9 NE 9 13 5 7 1019.9 1019.9 0.0
02/01:00pm 22.2 22.0 13.5 57 5.0 E 7 9 4 5 1020.4 1020.4 0.0
02/12:30pm 22.6 20.4 12.0 51 6.0 ENE 15 19 8 10 1020.9 1020.9 0.0
02/12:00pm 22.2 20.7 13.0 56 5.3 NNE 13 17 7 9 1021.4 1021.4 0.0
02/11:30am 21.7 20.1 12.8 57 5.1 NNE 13 19 7 10 1022.1 1022.1 0.0
02/11:00am 21.2 19.2 12.6 58 4.9 NW 15 19 8 10 1022.6 1022.6 0.0
02/10:30am 20.2 18.3 11.7 58 4.7 NNW 13 19 7 10 1023.2 1023.2 0.0
02/10:00am 19.3 18.0 11.3 60 4.4 NNE 9 11 5 6 1023.3 1023.3 0.0
02/09:30am 17.9 17.1 11.0 64 3.7 ENE 6 9 3 5 1023.3 1023.3 0.0
02/09:00am 16.9 16.5 11.0 68 3.2 E 4 7 2 4 1023.4 1023.4 0.0
02/08:30am 14.8 15.1 10.8 77 2.1 CALM 0 0 0 0 1023.3 1023.3 0.0
02/08:00am 13.2 12.2 10.9 86 1.2 SW 7 9 4 5 1023.3 1023.3 0.0
02/07:30am 11.6 10.3 9.9 89 0.9 W 7 9 4 5 1023.2 1023.2 0.0
02/07:00am 11.3 10.0 9.9 91 0.7 W 7 9 4 5 1022.9 1022.9 0.0
02/06:30am 10.7 9.3 9.5 92 0.6 WNW 7 9 4 5 1022.6 1022.6 0.0
02/06:00am 11.0 11.0 9.8 92 0.6 CALM 0 0 0 0 1022.4 1022.4 0.0
02/05:30am 10.8 9.6 9.6 92 0.6 W 6 7 3 4 1022.2 1022.2 0.0
02/05:00am 11.1 9.7 9.7 91 0.7 W 7 9 4 5 1022.1 1022.1 0.0
02/04:30am 11.5 10.3 10.2 92 0.7 WSW 7 9 4 5 1021.9 1021.9 0.0
02/04:00am 11.7 11.8 10.3 91 0.7 CALM 0 0 0 0 1022.0 1022.0 0.0
02/03:30am 11.7 10.4 9.9 89 0.9 W 7 9 4 5 1021.8 1021.8 0.0
02/03:00am 12.1 10.4 10.0 87 1.1 NW 9 13 5 7 1021.8 1021.8 0.0
02/02:30am 13.5 11.8 11.2 86 1.2 NW 11 13 6 7 1022.1 1022.1 0.0
02/02:00am 14.2 12.5 11.2 82 1.6 NW 11 13 6 7 1022.2 1022.2 0.0
02/01:30am 15.0 13.4 11.4 79 1.9 NNW 11 15 6 8 1022.2 1022.2 0.0
02/01:00am 15.5 14.4 12.1 80 1.8 N 9 11 5 6 1022.5 1022.5 0.0
02/12:30am 15.3 14.6 11.9 80 1.8 NNW 7 9 4 5 1022.9 1022.9 0.0
02/12:00am 15.4 14.9 12.5 83 1.6 NNW 7 13 4 7 1023.2 1023.2 0.0
 
Date/Time
EST
Tmp

°C
App
Tmp
°C
Dew
Point
°C
Rel
Hum
%
Delta-T

°C
Wind Press
QNH
hPa
Press
MSL
hPa
Rain
since
9 am
mm
Dir
 
Spd
km/h
Gust
km/h
Spd
kts
Gust
kts
01/11:30pm 14.8 14.1 12.1 84 1.5 NNW 7 9 4 5 1023.1 1023.1 0.0
01/11:00pm 14.5 13.9 12.4 87 1.1 NW 7 9 4 5 1023.1 1023.1 0.0
01/10:30pm 14.9 14.0 12.6 86 1.3 NNW 9 15 5 8 1023.1 1023.1 0.0
01/10:00pm 14.8 13.5 12.5 86 1.3 NW 11 13 6 7 1023.1 1023.1 0.0
01/09:30pm 15.0 13.6 12.3 84 1.5 WNW 11 13 6 7 1023.0 1023.0 0.0
01/09:00pm 15.3 14.3 12.4 83 1.6 NW 9 11 5 6 1023.0 1023.0 0.0
01/08:30pm 15.9 15.3 13.4 85 1.4 NW 9 13 5 7 1022.8 1022.8 0.0
01/08:00pm 16.5 15.2 13.6 83 1.6 N 13 15 7 8 1022.5 1022.5 0.0
01/07:30pm 17.0 16.1 13.7 81 1.9 N 11 13 6 7 1022.2 1022.2 0.0
01/07:00pm 17.1 15.9 14.0 82 1.8 N 13 17 7 9 1022.1 1022.1 0.0
01/06:30pm 17.6 15.9 13.5 77 2.3 N 15 17 8 9 1021.9 1021.9 0.0
01/06:00pm 18.2 16.3 13.1 72 2.9 NNE 15 17 8 9 1021.6 1021.6 0.0
01/05:30pm 18.4 16.1 13.0 71 3.0 NNE 17 19 9 10 1021.3 1021.3 0.0
01/05:00pm 19.0 16.6 12.7 67 3.5 NE 17 19 9 10 1021.1 1021.1 0.0
01/04:30pm 19.5 17.1 12.7 65 3.8 NE 17 19 9 10 1021.2 1021.2 0.0
01/04:00pm 19.8 17.4 12.6 63 4.0 NE 17 19 9 10 1021.1 1021.1 0.0
01/03:30pm 20.1 17.7 12.6 62 4.2 NE 17 20 9 11 1021.1 1021.1 0.0
01/03:00pm 20.2 17.6 11.9 59 4.6 NE 17 19 9 10 1021.0 1021.0 0.0
01/02:30pm 20.2 17.9 11.9 59 4.6 ENE 15 17 8 9 1021.1 1021.1 0.0
01/02:00pm 20.3 18.8 11.8 58 4.7 NE 11 13 6 7 1021.1 1021.1 0.0
01/01:30pm 20.3 18.6 11.2 56 5.0 E 11 13 6 7 1021.2 1021.2 0.0
01/01:00pm 20.7 18.6 11.3 55 5.2 E 13 15 7 8 1021.9 1021.9 0.0
01/12:30pm 20.5 18.6 10.6 53 5.4 E 11 11 6 6 1022.2 1022.2 0.0
01/12:00pm 20.7 19.8 10.5 52 5.5 E 6 7 3 4 1022.7 1022.7 0.0
01/11:30am 20.0 18.6 9.6 51 5.5 ENE 7 9 4 5 1023.3 1023.3 0.0
01/11:00am 19.8 17.9 9.1 50 5.6 E 9 9 5 5 1023.7 1023.7 0.0
01/10:30am 20.2 18.2 8.5 47 6.1 ESE 9 9 5 5 1024.0 1024.0 0.0
01/10:00am 18.7 16.6 8.1 50 5.4 SE 9 11 5 6 1024.2 1024.2 0.0
01/09:30am 16.7 14.5 7.9 56 4.4 SSW 9 11 5 6 1024.3 1024.3 0.0
01/09:00am 15.4 12.9 9.7 69 2.9 WSW 13 17 7 9 1024.5 1024.5 0.0
01/08:30am 13.6 11.0 7.8 68 2.9 WSW 11 13 6 7 1024.3 1024.3 0.0
01/08:00am 12.1 10.2 7.6 74 2.2 W 7 7 4 4 1023.8 1023.8 0.0
01/07:30am 10.4 8.7 7.6 83 1.3 W 6 7 3 4 1023.4 1023.4 0.0
01/07:00am 9.2 6.8 7.2 87 0.9 W 9 9 5 5 1023.2 1023.2 0.0
01/06:30am 8.7 6.7 7.0 89 0.8 WNW 7 9 4 5 1023.0 1023.0 0.0
01/06:00am 9.4 7.3 6.8 84 1.2 SW 7 9 4 5 1022.6 1022.6 0.0
01/05:30am 9.3 6.9 6.9 85 1.1 SW 9 11 5 6 1022.5 1022.5 0.0
01/05:00am 10.0 7.7 7.4 84 1.2 SW 9 11 5 6 1022.3 1022.3 0.0
01/04:30am 10.5 8.6 7.7 83 1.3 WSW 7 9 4 5 1022.3 1022.3 0.0
01/04:00am 10.7 9.0 8.3 85 1.2 SW 7 9 4 5 1022.1 1022.1 0.0
01/03:30am 10.5 8.7 8.1 85 1.2 WSW 7 9 4 5 1022.0 1022.0 0.0
01/03:00am 10.5 8.4 8.4 87 1.0 SW 9 11 5 6 1022.1 1022.1 0.0
01/02:30am 10.7 9.0 8.5 86 1.1 WSW 7 11 4 6 1022.4 1022.4 0.0
01/02:00am 11.1 8.6 8.1 82 1.5 WSW 11 13 6 7 1022.4 1022.4 0.0
01/01:30am 11.4 9.3 8.4 82 1.5 SW 9 9 5 5 1022.5 1022.5 0.0
01/01:00am 11.9 9.7 9.3 84 1.3 WSW 11 13 6 7 1022.6 1022.6 0.0
01/12:30am 12.3 11.3 10.4 88 1.0 SSW 6 7 3 4 1022.6 1022.6 0.0
01/12:00am 12.6 11.7 10.7 88 1.0 S 6 7 3 4 1022.7 1022.7 0.0
 
Date/Time
EST
Tmp

°C
App
Tmp
°C
Dew
Point
°C
Rel
Hum
%
Delta-T

°C
Wind Press
QNH
hPa
Press
MSL
hPa
Rain
since
9 am
mm
Dir
 
Spd
km/h
Gust
km/h
Spd
kts
Gust
kts
31/11:30pm 12.8 11.9 10.5 86 1.2 WSW 6 7 3 4 1022.5 1022.5 0.0
31/11:00pm 13.4 12.6 11.1 86 1.2 NW 6 9 3 5 1022.4 1022.4 0.0
31/10:30pm 14.5 13.5 12.4 87 1.1 NW 9 11 5 6 1022.4 1022.4 0.0
31/10:00pm 14.7 13.7 12.4 86 1.2 NW 9 11 5 6 1022.6 1022.6 0.0
31/09:30pm 14.8 15.1 12.1 84 1.5 NW 2 9 1 5 1022.5 1022.5 0.0
31/09:00pm 15.1 14.4 12.1 82 1.6 NW 7 9 4 5 1022.3 1022.3 0.0
31/08:30pm 15.1 14.6 11.9 81 1.7 NW 6 7 3 4 1022.2 1022.2 0.0
31/08:00pm 15.4 14.3 11.8 79 1.9 NW 9 11 5 6 1021.8 1021.8 0.0
31/07:30pm 16.4 15.2 12.8 79 2.0 NNW 11 17 6 9 1021.5 1021.5 0.0
31/07:00pm 17.4 15.6 13.3 77 2.3 N 15 17 8 9 1021.2 1021.2 0.0
31/06:30pm 17.8 15.4 12.7 72 2.8 NNE 17 19 9 10 1020.8 1020.8 0.0
31/06:00pm 18.2 15.7 12.2 68 3.3 NNE 17 19 9 10 1020.6 1020.6 0.0
31/05:30pm 18.6 16.0 10.7 60 4.3 NNE 15 19 8 10 1020.6 1020.6 0.0
31/05:00pm 19.1 15.7 10.4 57 4.7 NNE 19 20 10 11 1020.4 1020.4 0.0
31/04:30pm 19.5 16.1 10.5 56 4.9 NE 19 24 10 13 1020.5 1020.5 0.0
31/04:00pm 19.9 16.7 9.8 52 5.4 NE 17 19 9 10 1020.4 1020.4 0.0
31/03:30pm 20.4 17.2 9.9 51 5.6 NE 17 20 9 11 1020.2 1020.2 0.0
31/03:00pm 23.0 19.2 4.0 29 9.3 NE 13 17 7 9 1020.3 1020.3 0.0
31/02:30pm 22.8 18.9 3.4 28 9.4 NE 13 17 7 9 1020.4 1020.4 0.0
31/02:00pm 22.8 19.2 4.8 31 8.9 NE 13 17 7 9 1020.6 1020.6 0.0
31/01:30pm 22.3 18.6 2.4 27 9.4 ENE 11 15 6 8 1020.9 1020.9 0.0
31/01:00pm 22.4 18.1 3.0 28 9.2 NE 15 19 8 10 1021.2 1021.2 0.0
31/12:30pm 21.8 18.5 6.5 37 7.8 E 13 13 7 7 1021.5 1021.5 0.0
31/12:00pm 21.9 19.3 7.7 40 7.4 ESE 11 13 6 7 1022.5 1022.5 0.0
31/11:30am 20.9 18.8 11.3 54 5.3 NE 13 15 7 8 1023.0 1023.0 0.0
31/11:00am 20.0 17.7 11.7 59 4.6 NE 15 17 8 9 1023.4 1023.4 0.0
31/10:30am 18.9 16.5 11.5 62 4.1 NE 15 17 8 9 1023.7 1023.7 0.0
31/10:00am 18.8 17.5 11.4 62 4.0 WNW 9 13 5 7 1024.1 1024.1 0.0
31/09:30am 17.4 15.9 11.9 70 3.0 WNW 11 15 6 8 1024.4 1024.4 0.0
31/09:00am 15.6 14.7 11.4 76 2.2 WSW 7 9 4 5 1024.4 1024.4 0.0
31/08:30am 14.2 12.9 11.2 82 1.6 SW 9 11 5 6 1024.4 1024.4 0.0
31/08:00am 12.5 11.3 10.4 87 1.1 WSW 7 9 4 5 1024.1 1024.1 0.0
31/07:30am 11.0 9.8 9.4 90 0.8 W 6 7 3 4 1023.6 1023.6 0.0
31/07:00am 10.0 9.4 8.8 92 0.6 WNW 2 7 1 4 1023.8 1023.8 0.0
31/06:30am 10.3 10.1 9.1 92 0.6 CALM 0 0 0 0 1023.1 1023.1 0.0
31/06:00am 10.0 8.6 8.8 92 0.6 WSW 6 9 3 5 1022.9 1022.9 0.0
31/05:30am 10.1 8.2 8.9 92 0.6 W 9 11 5 6 1022.6 1022.6 0.0
31/05:00am 10.3 8.7 8.9 91 0.7 N 7 9 4 5 1022.0 1022.0 0.0
31/04:30am 10.8 9.6 9.4 91 0.7 W 6 9 3 5 1022.4 1022.4 0.0
31/04:00am 10.9 9.5 9.5 91 0.7 WSW 7 9 4 5 1022.8 1022.8 0.0
31/03:30am 10.9 9.1 9.5 91 0.7 SW 9 13 5 7 1022.9 1022.9 0.0
31/03:00am 11.0 8.9 9.6 91 0.7 W 11 13 6 7 1023.0 1023.0 0.0
31/02:30am 11.2 8.7 9.8 91 0.7 WSW 13 17 7 9 1023.2 1023.2 0.0
31/02:00am 11.3 8.9 9.9 91 0.7 WNW 13 15 7 8 1023.3 1023.3 0.0
31/01:30am 11.7 9.4 10.3 91 0.7 WNW 13 15 7 8 1023.3 1023.3 0.0
31/01:00am 11.8 9.4 10.2 90 0.8 WNW 13 17 7 9 1023.6 1023.6 0.0
31/12:30am 11.9 9.6 10.5 91 0.7 WNW 13 15 7 8 1023.8 1023.8 0.0
31/12:00am 12.1 9.8 10.5 90 0.8 WNW 13 13 7 7 1024.1 1024.1 0.0
 
Date/Time
EST
Tmp

°C
App
Tmp
°C
Dew
Point
°C
Rel
Hum
%
Delta-T

°C
Wind Press
QNH
hPa
Press
MSL
hPa
Rain
since
9 am
mm
Dir
 
Spd
km/h
Gust
km/h
Spd
kts
Gust
kts
30/11:30pm 12.3 10.5 10.7 90 0.8 WNW 11 13 6 7 1024.4 1024.4 0.0
30/11:00pm 12.6 10.5 11.0 90 0.8 WNW 13 15 7 8 1024.6 1024.6 0.0
30/10:30pm 13.0 11.3 11.2 89 0.9 WNW 11 13 6 7 1024.6 1024.6 0.0
30/10:00pm 13.3 11.7 11.5 89 1.0 WNW 11 13 6 7 1024.8 1024.8 0.0
30/09:30pm 13.3 11.7 11.5 89 1.0 WNW 11 11 6 6 1024.8 1024.8 0.0
30/09:00pm 13.9 13.1 11.8 87 1.1 WNW 7 9 4 5 1024.6 1024.6 0.0
30/08:30pm 14.4 13.8 12.3 87 1.1 WNW 7 7 4 4 1025.0 1025.0 0.0
30/08:00pm 15.0 15.9 12.9 87 1.2 CALM 0 0 0 0 1025.1 1025.1 0.0
30/07:30pm 15.9 15.5 13.0 83 1.6 NE 7 9 4 5 1024.7 1024.7 0.0
30/07:00pm 16.1 15.8 12.7 80 1.9 NE 6 7 3 4 1024.7 1024.7 0.0
30/06:30pm 16.4 17.2 12.4 77 2.2 CALM 0 0 0 0 1024.8 1024.8 0.0
30/06:00pm 17.1 16.5 12.4 74 2.6 ENE 7 7 4 4 1024.7 1024.7 0.0
30/05:30pm 17.3 16.3 12.2 72 2.8 ENE 9 9 5 5 1024.5 1024.5 0.0
30/05:00pm 17.9 17.2 11.9 68 3.3 ENE 7 9 4 5 1024.1 1024.1 0.0

Latest Capital City Observations: Canberra | Sydney | Melbourne | Brisbane | Adelaide | Perth | Hobart | Darwin

Other Formats:

Comma delimited format used in spreadsheet applications
http://www.bom.gov.au/fwo/IDQ60901/IDQ60901.95591.axf

JavaScript Object Notation format (JSON) in row-major order
http://www.bom.gov.au/fwo/IDQ60901/IDQ60901.95591.json